createdAt,value
2023-03-02T08:34:05.487Z,94210.00
2023-03-02T08:34:16.812Z,94210.00
2023-03-02T08:34:28.400Z,94211.00
2023-03-02T08:34:39.734Z,94210.00
2023-03-02T08:34:51.382Z,94210.00
2023-03-02T08:35:02.727Z,94211.00
2023-03-02T08:35:14.347Z,94211.00
2023-03-02T08:35:25.788Z,94213.00
2023-03-02T08:35:37.395Z,94210.00
2023-03-02T08:35:48.881Z,94213.00
2023-03-02T08:36:00.994Z,94215.00
2023-03-02T08:36:12.373Z,94215.00
2023-03-02T08:36:23.951Z,94211.00
2023-03-02T08:36:35.462Z,94213.00
2023-03-02T08:36:47.126Z,94213.00
2023-03-02T08:36:58.454Z,94217.00
2023-03-02T08:37:10.032Z,94215.00
2023-03-02T08:37:21.346Z,94215.00
2023-03-02T08:37:33.119Z,94215.00
2023-03-02T08:37:44.459Z,94215.00
2023-03-02T08:37:56.032Z,94213.00
2023-03-02T08:38:07.364Z,94217.00
2023-03-02T08:38:18.984Z,94215.00
2023-03-02T08:38:30.313Z,94217.00
2023-03-02T08:38:41.901Z,94217.00
2023-03-02T08:38:53.248Z,94219.00
2023-03-02T08:39:04.843Z,94219.00
2023-03-02T08:39:16.220Z,94219.00
2023-03-02T08:39:29.065Z,94217.00
2023-03-02T08:39:38.291Z,94219.00
2023-03-02T08:39:49.876Z,94217.00
2023-03-02T08:40:01.227Z,94217.00
2023-03-02T08:40:12.782Z,94221.00
2023-03-02T08:40:24.102Z,94219.00
2023-03-02T08:40:35.692Z,94217.00
2023-03-02T08:40:47.038Z,94217.00
2023-03-02T08:40:58.657Z,94219.00
2023-03-02T08:41:09.998Z,94217.00
2023-03-02T08:41:21.606Z,94219.00
2023-03-02T08:41:33.393Z,94219.00
2023-03-02T08:41:45.110Z,94219.00
2023-03-02T08:41:56.446Z,94221.00
2023-03-02T08:42:08.032Z,94221.00
2023-03-02T08:42:19.343Z,94219.00
2023-03-02T08:42:30.935Z,94221.00
2023-03-02T08:42:42.302Z,94219.00
2023-03-02T08:42:53.896Z,94221.00
2023-03-02T08:43:07.721Z,94221.00
2023-03-02T08:43:17.246Z,94223.00
2023-03-02T08:43:28.841Z,94223.00
2023-03-02T08:43:40.220Z,94225.00
2023-03-02T08:43:51.829Z,94227.00
2023-03-02T08:44:03.183Z,94225.00
2023-03-02T08:44:14.772Z,94223.00
2023-03-02T08:44:26.080Z,94227.00
2023-03-02T08:44:37.651Z,94223.00
2023-03-02T08:44:48.976Z,94223.00
2023-03-02T08:45:00.573Z,94225.00
2023-03-02T08:45:11.895Z,94225.00
2023-03-02T08:45:23.603Z,94223.00
2023-03-02T08:45:35.044Z,94223.00
2023-03-02T08:45:46.610Z,94223.00
2023-03-02T08:45:58.095Z,94223.00
2023-03-02T08:46:09.859Z,94225.00
2023-03-02T08:46:21.176Z,94225.00
2023-03-02T08:46:32.763Z,94223.00
2023-03-02T08:46:44.081Z,94227.00
2023-03-02T08:46:55.685Z,94223.00
2023-03-02T08:47:07.042Z,94225.00
2023-03-02T08:47:18.631Z,94225.00
2023-03-02T08:47:29.949Z,94223.00
2023-03-02T08:47:41.537Z,94223.00
2023-03-02T08:47:52.876Z,94225.00
2023-03-02T08:48:04.460Z,94223.00
2023-03-02T08:48:15.782Z,94225.00
2023-03-02T08:48:27.357Z,94225.00
2023-03-02T08:48:38.682Z,94223.00
2023-03-02T08:48:50.307Z,94227.00
2023-03-02T08:49:01.655Z,94227.00
2023-03-02T08:49:13.265Z,94227.00
2023-03-02T08:49:24.590Z,94227.00
2023-03-02T08:49:36.170Z,94227.00
2023-03-02T08:49:48.353Z,94225.00
2023-03-02T08:49:57.674Z,94227.00
2023-03-02T08:50:09.265Z,94227.00
2023-03-02T08:50:20.575Z,94225.00
2023-03-02T08:50:32.157Z,94227.00
2023-03-02T08:50:43.534Z,94227.00
2023-03-02T08:50:55.078Z,94227.00
2023-03-02T08:51:06.406Z,94229.00
2023-03-02T08:51:18.027Z,94225.00
2023-03-02T08:51:29.318Z,94225.00
2023-03-02T08:51:40.900Z,94229.00
2023-03-02T08:51:52.227Z,94227.00
2023-03-02T08:52:03.856Z,94231.00
2023-03-02T08:52:15.304Z,94229.00
2023-03-02T08:52:27.000Z,94229.00
2023-03-02T08:52:38.352Z,94227.00
2023-03-02T08:52:49.971Z,94231.00
2023-03-02T08:53:01.309Z,94227.00
2023-03-02T08:53:12.922Z,94229.00
2023-03-02T08:53:24.259Z,94229.00
2023-03-02T08:53:35.863Z,94229.00
2023-03-02T08:53:47.200Z,94227.00
2023-03-02T08:53:58.815Z,94229.00
2023-03-02T08:54:10.142Z,94231.00
2023-03-02T08:54:21.725Z,94229.00
2023-03-02T08:54:33.045Z,94233.00
2023-03-02T08:54:44.742Z,94231.00
2023-03-02T08:54:56.106Z,94231.00
2023-03-02T08:55:07.764Z,94227.00
2023-03-02T08:55:19.185Z,94229.00
2023-03-02T08:55:30.835Z,94231.00
2023-03-02T08:55:42.132Z,94227.00
2023-03-02T08:55:53.762Z,94229.00
2023-03-02T08:56:05.126Z,94227.00
2023-03-02T08:56:16.726Z,94231.00
2023-03-02T08:56:28.069Z,94229.00
2023-03-02T08:56:39.657Z,94227.00
2023-03-02T08:56:51.000Z,94229.00
2023-03-02T08:57:02.648Z,94225.00
2023-03-02T08:57:14.000Z,94227.00
2023-03-02T08:57:25.592Z,94227.00
2023-03-02T08:57:36.949Z,94227.00
2023-03-02T08:57:48.554Z,94223.00
2023-03-02T08:57:59.883Z,94223.00
2023-03-02T08:58:11.489Z,94223.00
2023-03-02T08:58:22.844Z,94221.00
2023-03-02T08:58:34.411Z,94223.00
2023-03-02T08:58:45.752Z,94223.00
2023-03-02T08:58:57.330Z,94221.00
2023-03-02T08:59:08.709Z,94221.00
2023-03-02T08:59:20.299Z,94221.00
2023-03-02T08:59:31.653Z,94223.00
2023-03-02T08:59:43.255Z,94223.00
2023-03-02T08:59:54.598Z,94221.00
2023-03-02T09:00:06.205Z,94219.00
2023-03-02T09:00:17.525Z,94223.00
2023-03-02T09:00:31.263Z,94225.00
2023-03-02T09:00:40.836Z,94223.00
2023-03-02T09:00:52.568Z,94225.00
2023-03-02T09:01:03.940Z,94223.00
2023-03-02T09:01:15.551Z,94227.00
2023-03-02T09:01:27.000Z,94223.00
2023-03-02T09:01:38.748Z,94223.00
2023-03-02T09:01:50.177Z,94223.00
2023-03-02T09:02:01.778Z,94225.00
2023-03-02T09:02:13.105Z,94225.00
2023-03-02T09:02:24.727Z,94225.00
2023-03-02T09:02:36.077Z,94227.00
2023-03-02T09:02:47.652Z,94223.00
2023-03-02T09:02:58.979Z,94225.00
2023-03-02T09:03:10.560Z,94227.00
2023-03-02T09:03:21.880Z,94225.00
2023-03-02T09:03:33.465Z,94227.00
2023-03-02T09:03:44.953Z,94227.00
2023-03-02T09:03:56.550Z,94225.00
2023-03-02T09:04:08.103Z,94227.00
2023-03-02T09:04:19.850Z,94227.00
2023-03-02T09:04:31.255Z,94225.00
2023-03-02T09:04:42.855Z,94225.00
2023-03-02T09:04:54.277Z,94227.00
2023-03-02T09:05:05.888Z,94225.00
2023-03-02T09:05:17.227Z,94227.00
2023-03-02T09:05:28.812Z,94225.00
2023-03-02T09:05:40.145Z,94229.00
2023-03-02T09:05:51.734Z,94229.00
2023-03-02T09:06:03.164Z,94227.00
2023-03-02T09:06:14.773Z,94231.00
2023-03-02T09:06:26.078Z,94231.00
2023-03-02T09:06:37.688Z,94229.00
2023-03-02T09:06:49.066Z,94231.00
2023-03-02T09:07:00.635Z,94229.00
2023-03-02T09:07:11.976Z,94229.00
2023-03-02T09:07:23.593Z,94231.00
2023-03-02T09:07:34.942Z,94229.00
2023-03-02T09:07:46.557Z,94231.00
2023-03-02T09:07:57.864Z,94229.00
2023-03-02T09:08:09.476Z,94229.00
2023-03-02T09:08:20.806Z,94229.00
2023-03-02T09:08:32.412Z,94229.00
2023-03-02T09:08:43.775Z,94233.00
2023-03-02T09:08:55.370Z,94229.00
2023-03-02T09:09:06.732Z,94229.00
2023-03-02T09:09:18.314Z,94231.00
2023-03-02T09:09:29.621Z,94231.00
2023-03-02T09:09:41.214Z,94233.00
2023-03-02T09:09:52.541Z,94231.00
2023-03-02T09:10:04.158Z,94231.00
2023-03-02T09:10:15.489Z,94233.00
2023-03-02T09:10:27.117Z,94231.00
2023-03-02T09:10:38.418Z,94237.00
2023-03-02T09:10:50.033Z,94235.00
2023-03-02T09:11:01.376Z,94235.00
2023-03-02T09:11:12.975Z,94233.00
2023-03-02T09:11:24.302Z,94235.00
2023-03-02T09:11:36.104Z,94235.00
2023-03-02T09:11:47.545Z,94235.00
2023-03-02T09:11:59.133Z,94237.00
2023-03-02T09:12:10.470Z,94237.00
2023-03-02T09:12:22.050Z,94233.00
2023-03-02T09:12:33.511Z,94237.00
2023-03-02T09:12:45.096Z,94237.00
2023-03-02T09:12:56.423Z,94237.00
2023-03-02T09:13:08.625Z,94235.00
2023-03-02T09:13:20.342Z,94237.00
2023-03-02T09:13:31.691Z,94237.00
2023-03-02T09:13:43.275Z,94235.00
2023-03-02T09:13:54.652Z,94235.00
2023-03-02T09:14:06.253Z,94237.00
2023-03-02T09:14:17.588Z,94235.00
2023-03-02T09:14:29.180Z,94235.00
2023-03-02T09:14:40.518Z,94235.00
2023-03-02T09:14:52.113Z,94235.00
2023-03-02T09:15:03.452Z,94235.00
2023-03-02T09:15:15.048Z,94237.00
2023-03-02T09:15:26.412Z,94233.00
2023-03-02T09:15:37.976Z,94235.00
2023-03-02T09:15:49.319Z,94237.00
2023-03-02T09:16:00.898Z,94235.00
2023-03-02T09:16:12.349Z,94239.00
2023-03-02T09:16:23.994Z,94235.00
2023-03-02T09:16:35.376Z,94235.00
2023-03-02T09:16:47.099Z,94239.00
2023-03-02T09:16:58.567Z,94239.00
2023-03-02T09:17:10.171Z,94239.00
2023-03-02T09:17:21.512Z,94239.00
2023-03-02T09:17:33.126Z,94239.00
2023-03-02T09:17:44.483Z,94241.00
2023-03-02T09:17:56.073Z,94241.00
2023-03-02T09:18:07.400Z,94239.00
2023-03-02T09:18:19.109Z,94239.00
2023-03-02T09:18:30.475Z,94241.00
2023-03-02T09:18:42.061Z,94241.00
2023-03-02T09:18:53.421Z,94241.00
2023-03-02T09:19:05.019Z,94239.00
2023-03-02T09:19:16.341Z,94237.00
2023-03-02T09:19:27.954Z,94237.00
2023-03-02T09:19:39.287Z,94239.00
2023-03-02T09:19:50.906Z,94237.00
2023-03-02T09:20:02.258Z,94235.00
2023-03-02T09:20:13.847Z,94239.00
2023-03-02T09:20:25.174Z,94239.00
2023-03-02T09:20:36.776Z,94237.00
2023-03-02T09:20:48.145Z,94237.00
2023-03-02T09:20:59.723Z,94237.00
2023-03-02T09:21:11.048Z,94237.00
2023-03-02T09:21:22.652Z,94239.00
2023-03-02T09:21:34.331Z,94237.00
2023-03-02T09:21:46.206Z,94235.00
2023-03-02T09:21:57.548Z,94233.00
2023-03-02T09:22:09.143Z,94237.00
2023-03-02T09:22:20.480Z,94235.00
2023-03-02T09:22:32.073Z,94241.00
2023-03-02T09:22:43.410Z,94239.00
2023-03-02T09:22:55.018Z,94239.00
2023-03-02T09:23:06.356Z,94237.00
2023-03-02T09:23:17.957Z,94239.00
2023-03-02T09:23:29.287Z,94239.00
2023-03-02T09:23:40.896Z,94239.00
2023-03-02T09:23:52.199Z,94241.00
2023-03-02T09:24:03.799Z,94239.00
2023-03-02T09:24:15.125Z,94239.00
2023-03-02T09:24:26.777Z,94239.00
2023-03-02T09:24:38.084Z,94239.00
2023-03-02T09:24:49.671Z,94239.00
2023-03-02T09:25:01.071Z,94239.00
2023-03-02T09:25:12.634Z,94241.00
2023-03-02T09:25:23.958Z,94239.00
2023-03-02T09:25:35.554Z,94237.00
2023-03-02T09:25:46.892Z,94239.00
2023-03-02T09:25:58.475Z,94239.00
2023-03-02T09:26:09.793Z,94239.00
2023-03-02T09:26:21.407Z,94239.00
2023-03-02T09:26:32.745Z,94239.00
2023-03-02T09:26:44.335Z,94241.00
2023-03-02T09:26:55.658Z,94239.00
2023-03-02T09:27:07.239Z,94239.00
2023-03-02T09:27:18.639Z,94237.00
2023-03-02T09:27:30.239Z,94239.00
2023-03-02T09:27:41.531Z,94241.00
2023-03-02T09:27:53.150Z,94243.00
2023-03-02T09:28:04.468Z,94239.00
2023-03-02T09:28:16.044Z,94241.00
2023-03-02T09:28:27.382Z,94239.00
2023-03-02T09:28:38.986Z,94237.00
2023-03-02T09:28:50.320Z,94241.00
2023-03-02T09:29:01.904Z,94239.00
2023-03-02T09:29:13.276Z,94245.00
2023-03-02T09:29:24.863Z,94243.00
2023-03-02T09:29:36.197Z,94243.00
2023-03-02T09:29:47.789Z,94239.00
2023-03-02T09:29:59.113Z,94243.00
2023-03-02T09:30:10.702Z,94243.00
2023-03-02T09:30:22.029Z,94245.00
2023-03-02T09:30:33.622Z,94241.00
2023-03-02T09:30:45.011Z,94241.00
2023-03-02T09:30:56.591Z,94243.00
2023-03-02T09:31:07.917Z,94241.00
2023-03-02T09:31:19.500Z,94241.00
2023-03-02T09:31:31.128Z,94241.00
2023-03-02T09:31:42.825Z,94241.00
2023-03-02T09:31:54.266Z,94243.00
2023-03-02T09:32:06.052Z,94241.00
2023-03-02T09:32:17.449Z,94241.00
2023-03-02T09:32:29.176Z,94239.00
2023-03-02T09:32:40.724Z,94241.00
2023-03-02T09:32:52.606Z,94241.00
2023-03-02T09:33:04.067Z,94241.00
2023-03-02T09:33:15.704Z,94239.00
2023-03-02T09:33:27.067Z,94239.00
2023-03-02T09:33:38.650Z,94241.00
2023-03-02T09:33:49.978Z,94239.00
2023-03-02T09:34:01.604Z,94239.00
2023-03-02T09:34:12.949Z,94237.00
2023-03-02T09:34:24.733Z,94241.00
2023-03-02T09:34:36.121Z,94239.00
2023-03-02T09:34:47.682Z,94239.00
2023-03-02T09:34:58.988Z,94239.00
2023-03-02T09:35:10.600Z,94241.00
2023-03-02T09:35:21.926Z,94239.00
2023-03-02T09:35:33.511Z,94239.00
2023-03-02T09:35:44.850Z,94237.00
2023-03-02T09:35:56.437Z,94241.00
2023-03-02T09:36:07.770Z,94243.00
2023-03-02T09:36:19.378Z,94241.00
2023-03-02T09:36:30.779Z,94241.00
2023-03-02T09:36:42.384Z,94241.00
2023-03-02T09:36:53.712Z,94243.00
2023-03-02T09:37:05.334Z,94243.00
2023-03-02T09:37:16.684Z,94243.00
2023-03-02T09:37:28.419Z,94249.00
2023-03-02T09:37:39.899Z,94241.00
2023-03-02T09:37:51.547Z,94245.00
2023-03-02T09:38:02.889Z,94245.00
2023-03-02T09:38:14.472Z,94245.00
2023-03-02T09:38:25.785Z,94247.00
2023-03-02T09:38:37.400Z,94249.00
2023-03-02T09:38:48.755Z,94247.00
2023-03-02T09:39:00.366Z,94245.00
2023-03-02T09:39:11.714Z,94245.00
2023-03-02T09:39:23.314Z,94249.00
2023-03-02T09:39:34.683Z,94249.00
2023-03-02T09:39:46.381Z,94249.00
